Newark Liberty International Airport
KEWR : now visible

Airfield :











YOU CAN JOIN US ON...

 
LOGIN :

Register | Disclaimer

   EN    FR    IT 

 









Legend :    VFR   Marginal VFR   IFR   Intensive IFR   Very Intensive IFR
Visi :
Ceiling :
>= 8 km
>= 3000ft
5 to 8 km
1000 to 3000 ft
1500m to 5 km
500 to 1000 ft
800 to 1500m
200 to 500 ft
< 800m
< 200 ft
Symbols :   Thunderstorms  Fog  Heavy snow  Heavy precipitations  Wind > 20 kt






- Airport Elevation : 18 ft
- IATA code : EWR


KEWR - Newark Liberty International

CURRENT METAR :
  • 170151Z 13006KT 10SM FEW017 FEW200 BKN250 20/16 A3022 RMK AO2 SLP231 T02000161

EXPIRED METARs :
  • 170051Z 14006KT 10SM FEW020 FEW070 SCT200 BKN250 20/16 A3021 RMK AO2 SLP229 T02000156
  • 162351Z 14010G16KT 10SM FEW070 SCT200 BKN250 21/15 A3021 RMK AO2 SLP228 T02060150 10244 20206 53001
  • 162251Z 14009KT 10SM FEW070 SCT190 BKN250 22/14 A3020 RMK AO2 SLP225 T02170144
  • 162151Z 14010KT 10SM FEW075 BKN190 BKN240 22/15 A3020 RMK AO2 SLP226 T02220150

TAF KEWR
Valid from the 17 at 00:00 until the 18 at 06:00 UTC


162331Z 1700/1806 15008KT P6SM FEW070 BKN250
FM170400 18005KT P6SM FEW009 FEW250
TEMPO 1706/1710 BKN009
FM171100 20008KT P6SM FEW012 SCT250
FM171600 19009G17KT P6SM FEW060 SCT250
FM171800 18012G22KT P6SM FEW060 SCT250
FM180000 20010G18KT P6SM FEW060 SCT250
FM180100 20009KT P6SM FEW060 SCT250
KZNY FIR / North America



MET'MAP, your aeronautical weather chart ! - Copyright ORBIFLY December 2007 - Disclaimer

ORBIFLY MET'MAP TEAM :

Programming & Development : Alexandra Zaïnal
Original concept : Baudouin d'Aumeries
Technical & hardware support : Manuel Goepfert
Assistance : Marc-Olivier Méhu




SOURCES & CREDITS :

   NOAA       Earth
Advisory